createdAt,value
2018-05-13T00:00:50.708Z,59.42
2018-05-13T00:03:18.290Z,58.83
2018-05-13T00:05:45.976Z,59.13
2018-05-13T00:08:13.561Z,59.10
2018-05-13T00:10:41.160Z,59.13
2018-05-13T00:13:09.028Z,58.22
2018-05-13T00:15:36.660Z,58.89
2018-05-13T00:18:04.332Z,60.02
2018-05-13T00:20:32.100Z,60.21
2018-05-13T00:22:59.684Z,59.61
2018-05-13T00:25:27.251Z,59.43
2018-05-13T00:27:55.137Z,59.62
2018-05-13T00:30:22.736Z,58.70
2018-05-13T00:32:50.356Z,57.82
2018-05-13T00:35:18.055Z,56.87
2018-05-13T00:37:45.637Z,56.42
2018-05-13T00:40:13.223Z,56.93
2018-05-13T00:42:40.871Z,57.25
2018-05-13T00:45:08.456Z,57.46
2018-05-13T00:47:36.038Z,58.43
2018-05-13T00:50:03.796Z,58.94
2018-05-13T00:52:31.433Z,59.53
2018-05-13T00:54:59.040Z,59.18
2018-05-13T00:57:26.669Z,59.04
2018-05-13T00:59:54.325Z,59.12
2018-05-13T01:02:21.967Z,58.93
2018-05-13T01:04:49.739Z,59.17
2018-05-13T01:07:17.374Z,60.62
2018-05-13T01:09:45.013Z,58.13
2018-05-13T01:12:13.552Z,58.82
2018-05-13T01:14:41.144Z,58.98
2018-05-13T01:17:08.728Z,58.94
2018-05-13T01:19:36.514Z,59.58
2018-05-13T01:22:04.120Z,60.70
2018-05-13T01:24:31.687Z,61.02
2018-05-13T01:26:59.421Z,60.85
2018-05-13T01:29:27.085Z,61.79
2018-05-13T01:31:54.727Z,62.70
2018-05-13T01:34:22.341Z,61.91
2018-05-13T01:36:49.924Z,62.95
2018-05-13T01:39:17.499Z,63.17
2018-05-13T01:41:45.110Z,63.00
2018-05-13T01:44:12.703Z,63.31
2018-05-13T01:46:40.284Z,63.61
2018-05-13T01:49:07.996Z,63.18
2018-05-13T01:51:35.624Z,63.44
2018-05-13T01:54:03.186Z,63.22
2018-05-13T01:56:30.899Z,61.47
2018-05-13T01:58:58.536Z,62.92
2018-05-13T02:01:26.117Z,63.07
2018-05-13T02:03:53.727Z,62.40
2018-05-13T02:06:21.287Z,62.67
2018-05-13T02:08:48.868Z,63.47
2018-05-13T02:11:16.548Z,63.46
2018-05-13T02:13:44.164Z,62.60
2018-05-13T02:16:11.813Z,61.88
2018-05-13T02:18:39.581Z,61.76
2018-05-13T02:21:07.208Z,60.49
2018-05-13T02:23:34.772Z,61.51
2018-05-13T02:26:02.504Z,61.91
2018-05-13T02:28:30.072Z,62.83
2018-05-13T02:30:57.648Z,62.47
2018-05-13T02:33:25.439Z,61.67
2018-05-13T02:35:53.072Z,62.52
2018-05-13T02:38:20.691Z,61.90
2018-05-13T02:40:48.380Z,63.30
2018-05-13T02:43:15.947Z,63.46
2018-05-13T02:45:43.537Z,62.47
2018-05-13T02:48:11.185Z,62.20
2018-05-13T02:50:38.772Z,63.48
2018-05-13T02:53:06.365Z,64.17
2018-05-13T02:55:33.985Z,64.01
2018-05-13T02:58:01.556Z,63.94
2018-05-13T03:00:29.164Z,64.23
2018-05-13T03:02:56.877Z,64.95
2018-05-13T03:05:24.521Z,64.80
2018-05-13T03:07:52.108Z,65.29
2018-05-13T03:10:19.720Z,65.36
2018-05-13T03:12:47.288Z,65.25
2018-05-13T03:15:14.875Z,65.28
2018-05-13T03:17:42.571Z,64.34
2018-05-13T03:20:10.181Z,64.22
2018-05-13T03:22:37.748Z,64.45
2018-05-13T03:25:05.502Z,62.72
2018-05-13T03:27:33.088Z,64.39
2018-05-13T03:30:00.659Z,63.32
2018-05-13T03:32:28.356Z,63.38
2018-05-13T03:34:56.000Z,62.41
2018-05-13T03:37:23.656Z,64.23
2018-05-13T03:39:51.541Z,61.85
2018-05-13T03:42:19.113Z,61.46
2018-05-13T03:44:46.715Z,62.14
2018-05-13T03:47:14.447Z,62.80
2018-05-13T03:49:42.059Z,62.24
2018-05-13T03:52:09.655Z,61.20
2018-05-13T03:54:37.292Z,61.51
2018-05-13T03:57:04.879Z,61.45
2018-05-13T03:59:32.482Z,60.96
2018-05-13T04:02:00.166Z,59.57
2018-05-13T04:04:27.796Z,59.68
2018-05-13T04:06:55.451Z,60.76
2018-05-13T04:09:35.000Z,60.74
2018-05-13T04:12:14.276Z,61.12
2018-05-13T04:14:53.784Z,60.96
2018-05-13T04:17:22.428Z,59.74
2018-05-13T04:19:50.089Z,58.55
2018-05-13T04:22:17.816Z,59.76
2018-05-13T04:24:45.417Z,56.62
2018-05-13T04:27:13.016Z,58.45
2018-05-13T04:29:40.636Z,58.76
2018-05-13T04:32:08.207Z,56.98
2018-05-13T04:34:35.776Z,58.45
2018-05-13T04:37:03.411Z,59.16
2018-05-13T04:39:30.979Z,57.81
2018-05-13T04:41:58.568Z,57.33
2018-05-13T04:44:26.190Z,56.90
2018-05-13T04:46:53.832Z,57.22
2018-05-13T04:49:22.184Z,58.40
2018-05-13T04:51:49.887Z,54.05
2018-05-13T04:54:17.541Z,54.60
2018-05-13T04:56:45.167Z,56.50
2018-05-13T04:59:12.880Z,50.09
2018-05-13T05:01:40.512Z,52.02
2018-05-13T05:04:08.165Z,50.83
2018-05-13T05:06:35.803Z,51.37
2018-05-13T05:09:03.515Z,51.15
2018-05-13T05:11:31.137Z,50.79
2018-05-13T05:13:58.767Z,51.95
2018-05-13T05:16:26.340Z,51.76
2018-05-13T05:18:54.017Z,49.28
2018-05-13T05:21:21.634Z,50.95
2018-05-13T05:23:49.272Z,52.24
2018-05-13T05:26:16.884Z,51.14
2018-05-13T05:28:44.678Z,51.57
2018-05-13T05:31:12.255Z,54.89
2018-05-13T05:33:39.889Z,51.46
2018-05-13T05:36:07.956Z,51.74
2018-05-13T05:38:35.529Z,53.98
2018-05-13T05:41:03.176Z,53.41
2018-05-13T05:43:30.791Z,52.64
2018-05-13T05:45:58.375Z,52.91
2018-05-13T05:48:26.002Z,54.45
2018-05-13T05:50:53.785Z,49.71
2018-05-13T05:53:21.371Z,50.23
2018-05-13T05:55:48.947Z,49.27
2018-05-13T05:58:16.579Z,46.90
2018-05-13T06:00:44.171Z,49.97
2018-05-13T06:03:11.756Z,45.87
2018-05-13T06:05:39.487Z,48.00
2018-05-13T06:08:07.125Z,47.34
2018-05-13T06:10:34.708Z,44.68
2018-05-13T06:13:02.329Z,45.53
2018-05-13T06:15:29.904Z,41.27
2018-05-13T06:17:57.483Z,46.08
2018-05-13T06:20:26.096Z,45.16
2018-05-13T06:22:53.684Z,44.27
2018-05-13T06:25:22.416Z,42.57
2018-05-13T06:27:50.031Z,45.32
2018-05-13T06:30:17.636Z,46.41
2018-05-13T06:32:45.210Z,39.96
2018-05-13T06:35:12.939Z,41.35
2018-05-13T06:37:40.504Z,40.14
2018-05-13T06:40:08.160Z,39.30
2018-05-13T06:42:35.936Z,39.34
2018-05-13T06:45:03.646Z,40.12
2018-05-13T06:47:31.220Z,39.09
2018-05-13T06:49:58.938Z,40.97
2018-05-13T06:52:26.507Z,36.34
2018-05-13T06:54:54.083Z,40.73
2018-05-13T06:57:22.388Z,37.95
2018-05-13T06:59:49.962Z,42.73
2018-05-13T07:02:17.568Z,37.87
2018-05-13T07:04:45.265Z,41.97
2018-05-13T07:07:15.057Z,38.48
2018-05-13T07:09:42.706Z,41.38
2018-05-13T07:12:10.419Z,40.76
2018-05-13T07:14:37.983Z,36.23
2018-05-13T07:17:05.591Z,37.36
2018-05-13T07:19:33.305Z,34.67
2018-05-13T07:22:00.917Z,37.40
2018-05-13T07:24:28.493Z,40.30
2018-05-13T07:26:56.209Z,45.49
2018-05-13T07:29:23.857Z,39.30
2018-05-13T07:31:51.427Z,38.55
2018-05-13T07:34:19.127Z,42.63
2018-05-13T07:36:46.778Z,41.61
2018-05-13T07:39:14.357Z,42.30
2018-05-13T07:41:42.120Z,45.72
2018-05-13T07:44:09.690Z,45.29
2018-05-13T07:46:37.343Z,37.71
2018-05-13T07:49:05.079Z,43.06
2018-05-13T07:51:32.666Z,40.29
2018-05-13T07:54:00.240Z,39.55
2018-05-13T07:56:27.959Z,48.45
2018-05-13T07:58:55.535Z,43.85
2018-05-13T08:01:23.101Z,42.50
2018-05-13T08:03:50.736Z,46.06
2018-05-13T08:06:18.361Z,42.08
2018-05-13T08:08:47.176Z,38.17
2018-05-13T08:11:14.877Z,42.28
2018-05-13T08:13:43.326Z,40.61
2018-05-13T08:16:10.992Z,39.63
2018-05-13T08:18:38.647Z,36.21
2018-05-13T08:21:06.237Z,36.24
2018-05-13T08:23:43.383Z,38.39
2018-05-13T08:26:11.061Z,38.64
2018-05-13T08:28:38.673Z,37.74
2018-05-13T08:31:06.414Z,41.42
2018-05-13T08:33:33.986Z,41.44
2018-05-13T08:36:01.573Z,42.55
2018-05-13T08:38:31.746Z,42.83
2018-05-13T08:40:59.388Z,39.29
2018-05-13T08:43:27.597Z,39.64
2018-05-13T08:45:55.302Z,41.57
2018-05-13T08:48:22.919Z,40.92
2018-05-13T08:50:50.487Z,39.85
2018-05-13T08:53:18.239Z,40.25
2018-05-13T08:55:45.807Z,39.92
2018-05-13T08:58:13.445Z,38.84
2018-05-13T09:00:41.168Z,37.60
2018-05-13T09:03:08.768Z,38.51
2018-05-13T09:05:36.345Z,40.69
2018-05-13T09:08:03.971Z,40.05
2018-05-13T09:10:31.559Z,40.33
2018-05-13T09:12:59.208Z,40.13
2018-05-13T09:15:26.983Z,41.84
2018-05-13T09:17:54.623Z,37.68
2018-05-13T09:20:22.225Z,40.94
2018-05-13T09:22:49.841Z,42.17
2018-05-13T09:25:17.493Z,43.44
2018-05-13T09:27:46.075Z,43.88
2018-05-13T09:30:13.814Z,40.80
2018-05-13T09:32:41.397Z,39.16
2018-05-13T09:35:08.993Z,41.84
2018-05-13T09:37:36.764Z,41.96
2018-05-13T09:40:05.284Z,39.92
2018-05-13T09:42:32.875Z,39.81
2018-05-13T09:45:00.488Z,43.01
2018-05-13T09:47:28.159Z,42.48
2018-05-13T09:49:55.741Z,38.98
2018-05-13T09:52:23.480Z,42.05
2018-05-13T09:54:51.118Z,43.92
2018-05-13T09:57:18.699Z,40.30
2018-05-13T09:59:46.432Z,39.74
2018-05-13T10:02:14.013Z,41.88
2018-05-13T10:04:41.666Z,41.20
2018-05-13T10:07:09.371Z,41.01
2018-05-13T10:09:37.022Z,40.47
2018-05-13T10:12:04.631Z,42.33
2018-05-13T10:14:32.415Z,45.19
2018-05-13T10:17:00.016Z,40.91
2018-05-13T10:19:27.691Z,40.74
2018-05-13T10:21:55.280Z,45.91
2018-05-13T10:24:22.869Z,43.41
2018-05-13T10:26:50.548Z,39.98
2018-05-13T10:29:18.220Z,40.88
2018-05-13T10:31:45.845Z,41.13
2018-05-13T10:34:13.487Z,44.03
2018-05-13T10:36:41.109Z,43.04
2018-05-13T10:39:08.697Z,44.00
2018-05-13T10:41:36.350Z,41.89
2018-05-13T10:44:03.986Z,39.96
2018-05-13T10:46:31.640Z,40.91
2018-05-13T10:48:59.293Z,44.36
2018-05-13T10:51:27.151Z,41.85
2018-05-13T10:53:56.411Z,46.78
2018-05-13T10:56:24.099Z,43.29
2018-05-13T10:58:51.780Z,40.99
2018-05-13T11:01:19.433Z,45.04
2018-05-13T11:03:47.005Z,40.54
2018-05-13T11:06:14.631Z,43.08
2018-05-13T11:08:42.230Z,43.39
2018-05-13T11:11:10.776Z,43.44
2018-05-13T11:13:38.436Z,43.33
2018-05-13T11:16:06.075Z,38.98
2018-05-13T11:18:33.656Z,39.15
2018-05-13T11:21:01.312Z,40.12
2018-05-13T11:23:28.904Z,39.19
2018-05-13T11:25:57.145Z,41.54
2018-05-13T11:28:24.992Z,40.86
2018-05-13T11:30:52.600Z,41.30
2018-05-13T11:33:20.176Z,44.27
2018-05-13T11:35:47.875Z,41.44
2018-05-13T11:38:15.458Z,39.05
2018-05-13T11:40:43.109Z,39.65
2018-05-13T11:43:10.837Z,41.38
2018-05-13T11:45:38.419Z,40.92
2018-05-13T11:48:05.994Z,42.90
2018-05-13T11:50:33.696Z,41.52
2018-05-13T11:53:01.329Z,44.95
2018-05-13T11:55:28.911Z,40.10
2018-05-13T11:57:56.693Z,39.68
2018-05-13T12:00:24.268Z,41.57
2018-05-13T12:02:51.924Z,43.11
2018-05-13T12:05:19.697Z,40.16
2018-05-13T12:07:47.337Z,40.35
2018-05-13T12:10:14.916Z,39.56
2018-05-13T12:12:42.705Z,40.40
2018-05-13T12:15:10.348Z,40.33
2018-05-13T12:17:37.902Z,40.21
2018-05-13T12:20:05.596Z,43.39
2018-05-13T12:22:33.182Z,43.05
2018-05-13T12:25:00.765Z,42.97
2018-05-13T12:27:28.387Z,43.83
2018-05-13T12:29:56.073Z,40.52
2018-05-13T12:32:23.700Z,39.68
2018-05-13T12:34:51.407Z,40.73
2018-05-13T12:37:18.987Z,41.02
2018-05-13T12:39:46.583Z,40.67
2018-05-13T12:42:14.424Z,42.52
2018-05-13T12:44:42.080Z,43.53
2018-05-13T12:47:09.647Z,40.56
2018-05-13T12:49:37.276Z,40.40
2018-05-13T12:52:04.879Z,38.63
2018-05-13T12:54:32.459Z,42.22
2018-05-13T12:57:00.164Z,42.10
2018-05-13T12:59:27.742Z,40.42
2018-05-13T13:01:55.321Z,40.75
2018-05-13T13:04:23.014Z,41.60
2018-05-13T13:06:50.612Z,39.76
2018-05-13T13:09:18.211Z,40.02
2018-05-13T13:11:45.868Z,41.92
2018-05-13T13:14:13.449Z,40.62
2018-05-13T13:16:41.050Z,41.87
2018-05-13T13:19:08.777Z,40.33
2018-05-13T13:21:37.204Z,38.02
2018-05-13T13:24:05.565Z,38.78
2018-05-13T13:26:33.943Z,38.87
2018-05-13T13:29:02.548Z,42.55
2018-05-13T13:31:31.013Z,43.66
2018-05-13T13:33:59.599Z,42.59
2018-05-13T13:36:27.252Z,42.64
2018-05-13T13:38:54.838Z,41.19
2018-05-13T13:41:22.471Z,40.47
2018-05-13T13:43:50.053Z,41.06
2018-05-13T13:46:17.639Z,43.26
2018-05-13T13:48:45.281Z,39.74
2018-05-13T13:51:12.861Z,41.25
2018-05-13T13:53:40.513Z,38.89
2018-05-13T13:56:08.241Z,39.79
2018-05-13T13:58:35.893Z,39.73
2018-05-13T14:01:03.512Z,38.34
2018-05-13T14:03:31.268Z,40.46
2018-05-13T14:05:58.893Z,40.69
2018-05-13T14:08:26.465Z,40.87
2018-05-13T14:10:54.187Z,42.22
2018-05-13T14:13:21.764Z,39.07
2018-05-13T14:15:49.476Z,38.56
2018-05-13T14:18:17.158Z,38.84
2018-05-13T14:20:44.781Z,40.79
2018-05-13T14:23:12.351Z,40.58
2018-05-13T14:25:40.331Z,41.24
2018-05-13T14:28:07.940Z,41.50
2018-05-13T14:30:35.579Z,39.96
2018-05-13T14:33:03.391Z,39.51
2018-05-13T14:35:31.053Z,40.92
2018-05-13T14:37:58.664Z,42.73
2018-05-13T14:40:26.395Z,42.32
2018-05-13T14:42:53.979Z,40.81
2018-05-13T14:45:21.639Z,40.23
2018-05-13T14:47:51.657Z,42.09
2018-05-13T14:50:19.278Z,41.08
2018-05-13T14:52:46.868Z,40.98
2018-05-13T14:55:14.514Z,40.72
2018-05-13T14:57:42.100Z,42.23
2018-05-13T15:00:09.720Z,41.07
2018-05-13T15:02:37.429Z,41.20
2018-05-13T15:05:05.071Z,41.16
2018-05-13T15:07:32.680Z,39.35
2018-05-13T15:10:00.313Z,40.89
2018-05-13T15:12:27.885Z,40.65
2018-05-13T15:14:55.472Z,41.06
2018-05-13T15:17:23.203Z,40.66
2018-05-13T15:19:50.848Z,37.69
2018-05-13T15:22:18.464Z,38.03
2018-05-13T15:24:46.203Z,39.31
2018-05-13T15:27:13.894Z,39.66
2018-05-13T15:29:41.553Z,40.30
2018-05-13T15:32:09.252Z,39.70
2018-05-13T15:34:36.893Z,39.02
2018-05-13T15:37:04.545Z,41.61
2018-05-13T15:39:32.235Z,40.87
2018-05-13T15:41:59.844Z,42.61
2018-05-13T15:44:27.424Z,42.16
2018-05-13T15:46:55.065Z,41.32
2018-05-13T15:49:22.656Z,41.18
2018-05-13T15:51:50.255Z,39.73
2018-05-13T15:54:17.981Z,39.79
2018-05-13T15:56:45.569Z,41.81
2018-05-13T15:59:13.156Z,41.01
2018-05-13T16:01:40.819Z,40.83
2018-05-13T16:04:08.463Z,40.88
2018-05-13T16:06:36.139Z,41.70
2018-05-13T16:09:03.962Z,42.81
2018-05-13T16:11:31.610Z,41.58
2018-05-13T16:13:59.213Z,41.78
2018-05-13T16:16:26.895Z,41.62
2018-05-13T16:18:54.564Z,41.94
2018-05-13T16:21:22.170Z,42.29
2018-05-13T16:23:49.781Z,41.95
2018-05-13T16:26:17.401Z,42.48
2018-05-13T16:28:44.992Z,43.60
2018-05-13T16:31:12.748Z,41.94
2018-05-13T16:33:40.397Z,41.98
2018-05-13T16:36:08.046Z,42.65
2018-05-13T16:38:35.818Z,44.16
2018-05-13T16:41:03.473Z,44.51
2018-05-13T16:43:31.063Z,43.41
2018-05-13T16:45:59.627Z,44.25
2018-05-13T16:48:27.207Z,44.24
2018-05-13T16:50:54.807Z,44.17
2018-05-13T16:53:22.435Z,46.32
2018-05-13T16:55:50.040Z,45.37
2018-05-13T16:58:17.638Z,44.91
2018-05-13T17:00:45.360Z,46.52
2018-05-13T17:03:12.943Z,47.41
2018-05-13T17:05:40.538Z,48.14
2018-05-13T17:08:08.244Z,48.37
2018-05-13T17:10:35.828Z,50.02
2018-05-13T17:13:03.470Z,50.44
2018-05-13T17:15:31.113Z,52.61
2018-05-13T17:17:58.685Z,53.53
2018-05-13T17:20:26.329Z,54.02
2018-05-13T17:22:53.953Z,52.82
2018-05-13T17:25:21.534Z,52.88
2018-05-13T17:27:49.188Z,53.34
2018-05-13T17:30:16.834Z,53.95
2018-05-13T17:32:44.484Z,54.16
2018-05-13T17:35:12.068Z,53.40
2018-05-13T17:37:39.773Z,52.66
2018-05-13T17:40:07.437Z,52.29
2018-05-13T17:42:35.025Z,53.46
2018-05-13T17:45:02.683Z,54.21
2018-05-13T17:47:30.290Z,52.67
2018-05-13T17:49:57.943Z,53.06
2018-05-13T17:52:25.626Z,52.25
2018-05-13T17:54:53.259Z,53.11
2018-05-13T17:57:20.890Z,54.54
2018-05-13T17:59:48.583Z,52.41
2018-05-13T18:02:16.164Z,51.62
2018-05-13T18:04:43.745Z,50.85
2018-05-13T18:07:11.496Z,52.58
2018-05-13T18:09:39.072Z,52.90
2018-05-13T18:12:06.664Z,52.90
2018-05-13T18:14:34.301Z,52.86
2018-05-13T18:17:01.890Z,52.65
2018-05-13T18:19:29.475Z,51.91
2018-05-13T18:21:57.212Z,53.41
2018-05-13T18:24:24.888Z,53.73
2018-05-13T18:26:52.468Z,53.69
2018-05-13T18:29:20.195Z,53.40
2018-05-13T18:31:47.835Z,53.45
2018-05-13T18:34:15.478Z,54.73
2018-05-13T18:36:43.163Z,54.99
2018-05-13T18:39:10.944Z,55.39
2018-05-13T18:41:38.480Z,55.58
2018-05-13T18:44:06.177Z,55.58
2018-05-13T18:46:33.782Z,56.33
2018-05-13T18:49:01.369Z,56.04
2018-05-13T18:51:29.115Z,57.10
2018-05-13T18:53:56.700Z,57.48
2018-05-13T18:56:24.287Z,58.06
2018-05-13T18:58:51.971Z,57.91
2018-05-13T19:01:19.696Z,58.61
2018-05-13T19:03:47.461Z,57.61
2018-05-13T19:06:15.283Z,58.18
2018-05-13T19:08:43.014Z,58.15
2018-05-13T19:11:10.740Z,57.85
2018-05-13T19:13:38.487Z,57.97
2018-05-13T19:16:06.227Z,58.32
2018-05-13T19:18:34.057Z,59.09
2018-05-13T19:21:01.995Z,59.75
2018-05-13T19:23:30.154Z,59.63
2018-05-13T19:25:58.216Z,58.30
2018-05-13T19:28:26.305Z,59.47
2018-05-13T19:30:54.228Z,59.37
2018-05-13T19:33:22.051Z,59.55
2018-05-13T19:35:50.353Z,59.66
2018-05-13T19:38:18.536Z,58.98
2018-05-13T19:40:46.772Z,59.22
2018-05-13T19:43:14.931Z,58.43
2018-05-13T19:45:42.993Z,57.96
2018-05-13T19:48:11.165Z,58.09
2018-05-13T19:50:39.363Z,58.79
2018-05-13T19:53:07.391Z,58.28
2018-05-13T19:55:35.426Z,56.85
2018-05-13T19:58:03.851Z,57.11
2018-05-13T20:00:31.864Z,56.61
2018-05-13T20:02:59.729Z,57.03
2018-05-13T20:05:27.443Z,57.51
2018-05-13T20:07:55.360Z,57.00
2018-05-13T20:10:23.359Z,57.57
2018-05-13T20:12:51.378Z,56.53
2018-05-13T20:15:19.505Z,57.93
2018-05-13T20:17:47.435Z,57.33
2018-05-13T20:20:15.572Z,57.75
2018-05-13T20:23:08.019Z,56.74
2018-05-13T20:25:36.048Z,57.31
2018-05-13T20:28:03.824Z,57.01
2018-05-13T20:30:31.522Z,56.88
2018-05-13T20:32:59.296Z,57.41
2018-05-13T20:35:26.962Z,56.99
2018-05-13T20:37:54.596Z,56.91
2018-05-13T20:40:22.429Z,57.12
2018-05-13T20:42:50.144Z,57.95
2018-05-13T20:45:17.749Z,56.89
2018-05-13T20:47:45.536Z,56.69
2018-05-13T20:50:13.195Z,56.72
2018-05-13T20:52:40.770Z,57.04
2018-05-13T20:55:08.495Z,57.01
2018-05-13T20:57:36.075Z,57.05
2018-05-13T21:00:03.720Z,58.09
2018-05-13T21:02:31.525Z,57.19
2018-05-13T21:04:59.181Z,57.63
2018-05-13T21:07:26.865Z,57.54
2018-05-13T21:09:54.483Z,57.99
2018-05-13T21:12:22.091Z,58.88
2018-05-13T21:14:49.670Z,59.06
2018-05-13T21:17:17.281Z,60.00
2018-05-13T21:19:44.929Z,59.60
2018-05-13T21:22:12.500Z,59.74
2018-05-13T21:24:40.211Z,60.75
2018-05-13T21:27:07.848Z,61.27
2018-05-13T21:29:35.544Z,60.73
2018-05-13T21:32:03.274Z,61.50
2018-05-13T21:34:30.912Z,61.06
2018-05-13T21:36:58.487Z,61.97
2018-05-13T21:39:26.273Z,62.22
2018-05-13T21:41:53.844Z,61.77
2018-05-13T21:44:21.432Z,61.99
2018-05-13T21:46:49.116Z,61.63
2018-05-13T21:49:16.781Z,62.63
2018-05-13T21:51:44.356Z,62.92
2018-05-13T21:54:11.969Z,62.70
2018-05-13T21:56:39.608Z,62.91
2018-05-13T21:59:07.189Z,62.77
2018-05-13T22:01:34.900Z,62.69
2018-05-13T22:04:02.536Z,63.31
2018-05-13T22:06:30.108Z,63.50
2018-05-13T22:08:57.823Z,63.54
2018-05-13T22:11:25.400Z,63.25
2018-05-13T22:13:53.062Z,63.74
2018-05-13T22:16:20.688Z,64.25
2018-05-13T22:18:48.257Z,64.53
2018-05-13T22:21:15.837Z,65.02
2018-05-13T22:23:43.467Z,64.81
2018-05-13T22:26:11.099Z,65.49
2018-05-13T22:28:38.750Z,65.71
2018-05-13T22:31:06.380Z,65.35
2018-05-13T22:33:34.040Z,65.48
2018-05-13T22:36:01.612Z,65.59
2018-05-13T22:38:29.245Z,66.13
2018-05-13T22:40:56.876Z,66.91
2018-05-13T22:43:24.852Z,67.37
2018-05-13T22:45:53.403Z,67.83
2018-05-13T22:48:20.984Z,68.09
2018-05-13T22:50:48.580Z,68.53
2018-05-13T22:53:16.188Z,69.18
2018-05-13T22:55:43.763Z,69.81
2018-05-13T22:58:11.345Z,69.81
2018-05-13T23:00:39.013Z,69.74
2018-05-13T23:03:06.649Z,69.70
2018-05-13T23:05:34.338Z,70.05
2018-05-13T23:08:01.986Z,70.38
2018-05-13T23:10:29.626Z,69.72
2018-05-13T23:12:57.192Z,69.31
2018-05-13T23:15:24.903Z,69.77
2018-05-13T23:17:52.537Z,69.41
2018-05-13T23:20:20.208Z,68.98
2018-05-13T23:22:47.823Z,69.27
2018-05-13T23:25:15.391Z,69.61
2018-05-13T23:27:43.009Z,69.54
2018-05-13T23:30:10.631Z,69.24
2018-05-13T23:32:38.212Z,68.70
2018-05-13T23:35:05.869Z,68.87
2018-05-13T23:37:33.548Z,69.33
2018-05-13T23:40:01.131Z,69.27
2018-05-13T23:42:28.705Z,68.91
2018-05-13T23:44:56.431Z,68.66
2018-05-13T23:47:24.072Z,68.89
2018-05-13T23:49:51.639Z,68.66
2018-05-13T23:52:19.359Z,69.40
2018-05-13T23:54:46.919Z,69.76
2018-05-13T23:57:14.514Z,69.99
2018-05-13T23:59:44.280Z,69.57
